METAR Data
IDs: Format: Raw Decoded Include TAF

Data at: 1756 UTC 21 Sep 2018

K11R 211735Z AUTO 17008KT 10SM SCT032 BKN041 BKN055 33/24 A2996 RMK AO2 T03250239
K11R 211715Z AUTO 20010KT 10SM SCT032 SCT039 SCT046 32/24 A2997 RMK AO2 T03240237
K11R 211655Z AUTO 19009KT 10SM SCT028 SCT035 SCT047 32/24 A2997 RMK AO2 T03220238
K11R 211635Z AUTO 19010KT 10SM SCT024 SCT029 SCT038 32/25 A2998 RMK AO2 LTG DSNT E AND SE T03180247
K11R 211615Z AUTO 18011G15KT 10SM SCT025 BKN030 BKN040 31/25 A2998 RMK AO2 T03120245
K11R 211555Z AUTO 18009KT 10SM SCT016 BKN024 BKN030 31/25 A2998 RMK AO2 T03100248
K11R 211535Z AUTO 17010G14KT 10SM BKN016 BKN022 30/26 A2998 RMK AO2 T02990255
K11R 211515Z AUTO 17010KT 10SM BKN014 BKN020 29/27 A2998 RMK AO2 LTG DSNT E T02910265
K11R 211455Z AUTO 14010KT 10SM BKN009 OVC016 29/27 A2997 RMK AO2 T02850271
K11R 211435Z AUTO 15007KT 10SM BKN009 28/27 A2997 RMK AO2 T02750268
K11R 211415Z AUTO 14007KT 10SM BKN005 27/27 A2997 RMK AO2 T02690266
K11R 211355Z AUTO 14004KT 10SM BKN005 27/27 A2997 RMK AO2 T02660265
K11R 211335Z AUTO 14005KT 7SM SCT005 26/26 A2997 RMK AO2 T02620261
K11R 211315Z AUTO 14003KT 7SM SCT005 26/26 A2996 RMK AO2 T02610260
K11R 211255Z AUTO 14003KT 5SM BR BKN005 26/26 A2997 RMK AO2 LTG DSNT W T02580257
K11R 211235Z AUTO 12003KT 5SM BR BKN003 26/26 A2996 RMK AO2 T02560255
K11R 211215Z AUTO 00000KT 5SM BR BKN003 26/26 A2996 RMK AO2 T02570255
K11R 211155Z AUTO 13003KT 7SM SCT003 SCT016 26/26 A2995 RMK AO2 60002 70035 T02570255 10257 20253
K11R 211135Z AUTO 12003KT 7SM BKN016 26/26 A2995 RMK AO2 T02570255
K11R 211115Z AUTO 13003KT 7SM SCT014 SCT019 26/26 A2994 RMK AO2 T02570255
K11R 211055Z AUTO 00000KT 7SM SCT011 SCT021 26/26 A2994 RMK AO2 T02570255
K11R 211035Z AUTO 00000KT 7SM SCT120 26/26 A2994 RMK AO2 T02560255
K11R 211015Z AUTO 13003KT 7SM BKN110 26/26 A2994 RMK AO2 T02560255
K11R 210955Z AUTO 00000KT 7SM OVC110 26/26 A2994 RMK AO2 T02560255
K11R 210935Z AUTO 00000KT 7SM BKN120 26/26 A2994 RMK AO2 T02570255
K11R 210915Z AUTO 00000KT 10SM CLR 26/26 A2994 RMK AO2 T02570255
K11R 210855Z AUTO 15004KT 10SM CLR 26/26 A2993 RMK AO2 LTG DSNT SE P0001 60002 T02570255
K11R 210835Z AUTO 14004KT 7SM -RA SCT050 SCT070 SCT095 26/25 A2993 RMK AO2 P0001 T02560254
K11R 210815Z AUTO 15003KT 7SM RA SCT075 BKN100 BKN120 26/26 A2995 RMK AO2 P0001 T02570255
K11R 210755Z AUTO 15003KT 10SM SCT110 26/25 A2994 RMK AO2 T02560253
K11R 210735Z AUTO 00000KT 10SM CLR 26/25 A2994 RMK AO2 T02560253
K11R 210715Z AUTO 00000KT 10SM CLR 26/25 A2994 RMK AO2 T02560253
K11R 210655Z AUTO 15005KT 10SM CLR 26/25 A2995 RMK AO2 P0001 T02560253
K11R 210635Z AUTO 15004KT 10SM -RA CLR 26/25 A2995 RMK AO2 P0001 T02550252
K11R 210615Z AUTO 15004KT 10SM -RA SCT100 SCT120 26/25 A2995 RMK AO2 P0001 T02550251
K11R 210555Z AUTO 15004KT 10SM -RA SCT018 SCT070 SCT100 25/25 A2996 RMK AO2 60002 T02530250 10253 20245 403320236
K11R 210535Z AUTO 14003KT 10SM SCT016 SCT021 SCT029 25/25 A2997 RMK AO2 T02520248
K11R 210515Z AUTO 13004KT 10SM CLR 25/25 A2997 RMK AO2 LTG DSNT SE T02500246
K11R 210455Z AUTO 00000KT 10SM CLR 25/25 A2997 RMK AO2 T02500245
K11R 210435Z AUTO 00000KT 10SM CLR 25/24 A2997 RMK AO2 T02480243
K11R 210415Z AUTO 00000KT 10SM CLR 25/24 A2997 RMK AO2 T02470242
K11R 210355Z AUTO 00000KT 10SM CLR 25/24 A2997 RMK AO2 T02480242
K11R 210335Z AUTO 00000KT 10SM CLR 25/24 A2997 RMK AO2 LTG DSNT SE T02470241
K11R 210315Z AUTO 00000KT 10SM CLR 25/24 A2996 RMK AO2 T02470240
K11R 210250Z AUTO 00000KT 10SM CLR 25/24 A2996 RMK AO2 60002 T02470240
K11R 210235Z AUTO 11003KT 10SM CLR 25/24 A2995 RMK AO2 T02460240
K11R 210215Z AUTO 11003KT 10SM SCT110 25/24 A2995 RMK AO2 LTG DSNT W T02460241
K11R 210155Z AUTO 00000KT 10SM -DZ SCT070 BKN110 25/24 A2994 RMK AO2 T02480240
K11R 210135Z AUTO 00000KT 10SM SCT100 25/24 A2994 RMK AO2 T02470241
K11R 210115Z AUTO 10003KT 10SM SCT025 SCT032 SCT039 25/24 A2994 RMK AO2 T02470241
K11R 210055Z AUTO 10004KT 10SM SCT027 SCT034 SCT060 25/24 A2994 RMK AO2 P0002 T02490242
K11R 210035Z AUTO 12004KT 10SM -RA BKN031 BKN035 OVC055 25/24 A2994 RMK AO2 LTG DSNT N AND NE P0002 T02480240
K11R 210015Z AUTO 17003KT 10SM -VCTSRA SCT033 BKN042 BKN055 25/24 A2994 RMK AO2 LTG DSNT NW THRU NE P0001 T02460238
K11R 202355Z AUTO 16006KT 7SM /VCTSRA SCT020 BKN050 OVC080 25/24 A2993 RMK AO2 LTG DSNT NW THRU SE P0028 60029 T02450235 10332 20245
K11R 202335Z AUTO 15004KT 10SM -TSRA SCT026 BKN065 OVC080 25/23 A2994 RMK AO2 LTG DSNT NW THRU NE P0025 T02470232
K11R 202315Z AUTO 16008G20KT 3SM +TSRA SCT021 BKN033 OVC065 25/22 A2994 RMK AO2 LTG DSNT ALQS P0025 T02490223
K11R 202255Z AUTO 16006KT 10SM VCTSRA SCT041 BKN050 OVC090 30/23 A2992 RMK AO2 LTG DSNT SE THRU NW P0001 T02950234
K11R 202235Z AUTO 13004KT 10SM VCTS SCT037 BKN070 OVC100 29/24 A2991 RMK AO2 LTG DSNT SE S AND NW T02900235
K11R 202215Z AUTO 11009G14KT 10SM SCT034 SCT047 SCT090 31/23 A2991 RMK AO2 LTG DSNT SE THRU W T03130231
K11R 202155Z AUTO 12011KT 10SM SCT036 SCT100 32/23 A2990 RMK AO2 LTG DSNT S THRU W T03240227
K11R 202135Z AUTO 14008G16KT 10SM SCT100 33/23 A2991 RMK AO2 LTG DSNT NE AND SW T03270231
K11R 202115Z AUTO 16007KT 120V200 10SM CLR 32/23 A2990 RMK AO2 LTG DSNT N E AND SW T03220228
K11R 202055Z AUTO 14009KT 10SM SCT036 SCT043 BKN070 30/22 A2990 RMK AO2 LTG DSNT N E AND SW T03010223
K11R 202035Z AUTO 13011G18KT 7SM BKN034 BKN043 32/23 A2991 RMK AO2 LTG DSNT W THRU E T03150227
K11R 202015Z AUTO 15009G14KT 10SM VCTS SCT031 BKN039 OVC120 33/23 A2992 RMK AO2 LTG DSNT ALQS T03310231
K11R 201955Z AUTO 13005KT 10SM TS SCT034 SCT044 BKN090 31/24 A2992 RMK AO2 LTG DSNT E SE AND NW T03110239
K11R 201935Z AUTO 16007KT 7SM -TSRA SCT035 BKN049 BKN060 32/23 A2994 RMK AO2 LTG DSNT ALQS T03180229
K11R 201915Z AUTO 14008KT 7SM -VCTSRA SCT033 BKN042 BKN050 31/23 A2994 RMK AO2 LTG DSNT ALQS T03100231
K11R 201855Z AUTO 16007KT 10SM VCTS SCT033 SCT039 32/23 A2994 RMK AO2 LTG DSNT E W AND NW T03240229
K11R 201835Z AUTO 15006KT 10SM VCTS SCT031 SCT037 SCT045 31/24 A2995 RMK AO2 LTG DSNT E W AND NW T03100236
K11R 201815Z AUTO 16007KT 130V190 10SM SCT035 SCT047 SCT060 31/23 A2996 RMK AO2 LTG DSNT ALQS T03130228
K11R 201755Z AUTO 15008G14KT 130V190 10SM SCT035 SCT050 SCT070 32/23 A2997 RMK AO2 LTG DSNT ALQS T03200227 10322 20237
K11R 201735Z AUTO 16008G14KT 130V210 10SM SCT025 SCT040 SCT049 32/24 A2998 RMK AO2 LTG DSNT E SE AND W T03170236
K11R 201715Z AUTO 15005KT 10SM SCT020 SCT025 BKN038 31/25 A2999 RMK AO2 LTG DSNT SE AND W T03070249
K11R 201655Z AUTO 16006KT 10SM BKN020 BKN033 BKN047 30/25 A2999 RMK AO2 LTG DSNT E AND W T03020249
K11R 201635Z AUTO 17005KT 10SM BKN017 BKN035 OVC065 30/25 A3000 RMK AO2 LTG DSNT E AND SE T02970248
K11R 201615Z AUTO 15006KT 10SM BKN015 30/25 A3000 RMK AO2 T02950252
K11R 201555Z AUTO 15006KT 10SM BKN013 30/26 A3000 RMK AO2 T02950260
K11R 201535Z AUTO 16005KT 10SM SCT013 BKN021 BKN028 29/26 A3000 RMK AO2 LTG DSNT W T02880260
K11R 201515Z AUTO 16006KT 10SM BKN013 BKN021 BKN026 29/26 A2999 RMK AO2 T02870258
K11R 201455Z AUTO 16005KT 10SM BKN011 29/26 A2999 RMK AO2 T02890260
K11R 201435Z AUTO 00000KT 10SM SCT009 SCT018 28/26 A2998 RMK AO2 T02750256
K11R 201415Z AUTO 14003KT 10SM BKN018 27/26 A2998 RMK AO2 T02680256
K11R 201355Z AUTO 13003KT 10SM CLR 26/26 A2997 RMK AO2 T02600256
K11R 201335Z AUTO 13003KT 5SM BR CLR 25/25 A2997 RMK AO2 T02510250
K11R 201315Z AUTO 00000KT 5SM BR SCT015 SCT023 25/24 A2997 RMK AO2 T02450244
K11R 201255Z AUTO 00000KT 5SM BR SCT015 SCT023 24/24 A2997 RMK AO2 T02410240
K11R 201235Z AUTO 00000KT 4SM BR SCT015 24/24 A2996 RMK AO2 T02380237
K11R 201215Z AUTO 00000KT 5SM BR SCT014 24/24 A2995 RMK AO2 T02370236
K11R 201155Z AUTO 00000KT 5SM BR SCT014 24/24 A2995 RMK AO2 T02380236 10256 20236
K11R 201135Z AUTO 00000KT 7SM CLR 24/24 A2995 RMK AO2 T02390237
K11R 201115Z AUTO 00000KT 5SM BR CLR 24/24 A2995 RMK AO2 T02400237
K11R 201055Z AUTO 00000KT 10SM CLR 24/24 A2994 RMK AO2 T02400238
K11R 201035Z AUTO 00000KT 10SM CLR 24/24 A2994 RMK AO2 T02410240
K11R 201015Z AUTO 00000KT 7SM CLR 24/24 A2994 RMK AO2 T02380236
K11R 200955Z AUTO 00000KT 7SM CLR 24/24 A2994 RMK AO2 T02370235
K11R 200935Z AUTO 00000KT 7SM CLR 24/24 A2994 RMK AO2 T02390236
K11R 200915Z AUTO 00000KT 10SM CLR 24/24 A2995 RMK AO2 T02410238
K11R 200855Z AUTO 16003KT 10SM SCT016 24/24 A2995 RMK AO2 T02420240
K11R 200835Z AUTO 00000KT 7SM SCT016 24/23 A2996 RMK AO2 T02370233
K11R 200815Z AUTO 00000KT 10SM CLR 24/24 A2996 RMK AO2 T02400235
K11R 200755Z AUTO 00000KT 10SM CLR 24/24 A2996 RMK AO2 T02440237
K11R 200735Z AUTO 00000KT 10SM CLR 25/24 A2996 RMK AO2 T02460240
K11R 200715Z AUTO 00000KT 10SM CLR 24/24 A2997 RMK AO2 T02440238
K11R 200655Z AUTO 00000KT 10SM CLR 25/24 A2997 RMK AO2 T02450237
K11R 200635Z AUTO 00000KT 10SM CLR 25/24 A2996 RMK AO2 T02500240
K11R 200615Z AUTO 00000KT 10SM CLR 25/24 A2997 RMK AO2 T02520240